Observation data for Hereford on 11/16/2019      Previous  Date       Current Mesonet Observations  Soil Data  Daily Summary Page  Observations in Plain Language
KHES 160600Z 21008KT 05/M03 A3014 RMK A01 T00451027  RH  060%=      5-min Rain = 0
KHES 160605Z 21008KT 04/M03 A3014 RMK A01 T00441027  RH  060%=      5-min Rain = 0
KHES 160610Z 21007KT 04/M03 A3014 RMK A01 T00421028  RH  061%=      5-min Rain = 0
KHES 160615Z 20007KT 04/M03 A3014 RMK A01 T00401028  RH  062%=      5-min Rain = 0
KHES 160620Z 21007KT 04/M03 A3014 RMK A01 T00391028  RH  062%=      5-min Rain = 0
KHES 160625Z 20006KT 04/M03 A3014 RMK A01 T00371028  RH  063%=      5-min Rain = 0
KHES 160630Z 20006KT 04/M03 A3014 RMK A01 T00351028  RH  064%=      5-min Rain = 0
KHES 160635Z 20007KT 03/M03 A3014 RMK A01 T00341027  RH  064%=      5-min Rain = 0
KHES 160640Z 20007KT 04/M03 A3014 RMK A01 T00351027  RH  064%=      5-min Rain = 0
KHES 160645Z 20007KT 04/M03 A3014 RMK A01 T00351027  RH  065%=      5-min Rain = 0
KHES 160650Z 21006KT 04/M03 A3014 RMK A01 T00361026  RH  064%=      5-min Rain = 0
KHES 160655Z 21006KT 03/M03 A3014 RMK A01 T00341027  RH  064%=      5-min Rain = 0
KHES 160700Z 20006KT 03/M03 A3013 RMK A01 T00321027  RH  065%=      5-min Rain = 0
KHES 160705Z 20007KT 03/M03 A3013 RMK A01 T00311026  RH  067%=      5-min Rain = 0
KHES 160710Z 20008KT 03/M02 A3013 RMK A01 T00341024  RH  066%=      5-min Rain = 0
KHES 160715Z 20009KT 04/M02 A3013 RMK A01 T00361023  RH  066%=      5-min Rain = 0
KHES 160720Z 20009KT 04/M02 A3013 RMK A01 T00371022  RH  066%=      5-min Rain = 0
KHES 160725Z 20009KT 04/M02 A3013 RMK A01 T00361022  RH  066%=      5-min Rain = 0
KHES 160730Z 20008KT 04/M02 A3013 RMK A01 T00351022  RH  066%=      5-min Rain = 0
KHES 160735Z 20008KT 04/M02 A3013 RMK A01 T00351022  RH  067%=      5-min Rain = 0
KHES 160740Z 20008KT 03/M02 A3012 RMK A01 T00341022  RH  067%=      5-min Rain = 0
KHES 160745Z 20009KT 03/M02 A3012 RMK A01 T00341021  RH  068%=      5-min Rain = 0
KHES 160750Z 20009KT 03/M02 A3012 RMK A01 T00331021  RH  068%=      5-min Rain = 0
KHES 160755Z 20009KT 03/M02 A3012 RMK A01 T00321021  RH  068%=      5-min Rain = 0
KHES 160800Z 20009KT 03/M02 A3011 RMK A01 T00321021  RH  069%=      5-min Rain = 0
KHES 160805Z 20009KT 03/M02 A3011 RMK A01 T00311021  RH  069%=      5-min Rain = 0
KHES 160810Z 20009KT 03/M02 A3011 RMK A01 T00321020  RH  069%=      5-min Rain = 0
KHES 160815Z 20009KT 03/M02 A3011 RMK A01 T00321020  RH  070%=      5-min Rain = 0
KHES 160820Z 20009KT 03/M02 A3011 RMK A01 T00321019  RH  070%=      5-min Rain = 0
KHES 160825Z 20009KT 03/M02 A3011 RMK A01 T00321019  RH  070%=      5-min Rain = 0
KHES 160830Z 21008KT 03/M02 A3011 RMK A01 T00321019  RH  070%=      5-min Rain = 0
KHES 160835Z 21008KT 03/M02 A3011 RMK A01 T00311019  RH  070%=      5-min Rain = 0
KHES 160840Z 20008KT 03/M02 A3011 RMK A01 T00301019  RH  071%=      5-min Rain = 0
KHES 160845Z 20008KT 03/M02 A3011 RMK A01 T00301019  RH  071%=      5-min Rain = 0
KHES 160850Z 21008KT 03/M02 A3011 RMK A01 T00301018  RH  071%=      5-min Rain = 0
KHES 160855Z 20008KT 03/M02 A3011 RMK A01 T00301018  RH  071%=      5-min Rain = 0
KHES 160900Z 20008KT 03/M02 A301 RMK A01 T00301017  RH  072%=      5-min Rain = 0
KHES 160905Z 20008KT 03/M02 A301 RMK A01 T00301017  RH  072%=      5-min Rain = 0
KHES 160910Z 20008KT 03/M02 A301 RMK A01 T00301017  RH  072%=      5-min Rain = 0
KHES 160915Z 20008KT 03/M02 A301 RMK A01 T00301017  RH  072%=      5-min Rain = 0
KHES 160920Z 21009KT 03/M02 A301 RMK A01 T00291017  RH  072%=      5-min Rain = 0
KHES 160925Z 21009KT 03/M02 A301 RMK A01 T00291017  RH  072%=      5-min Rain = 0
KHES 160930Z 21009KT 03/M02 A301 RMK A01 T00291017  RH  072%=      5-min Rain = 0
KHES 160935Z 21009KT 03/M02 A301 RMK A01 T00291017  RH  072%=      5-min Rain = 0
KHES 160940Z 21008KT 03/M02 A3009 RMK A01 T00281017  RH  073%=      5-min Rain = 0
KHES 160945Z 21009KT 03/M02 A3009 RMK A01 T00281017  RH  073%=      5-min Rain = 0
KHES 160950Z 21009KT 03/M02 A3009 RMK A01 T00301017  RH  072%=      5-min Rain = 0
KHES 160955Z 21009KT 03/M02 A3009 RMK A01 T00301017  RH  072%=      5-min Rain = 0
KHES 161000Z 21009KT 03/M02 A3009 RMK A01 T00301017  RH  072%=      5-min Rain = 0
KHES 161005Z 21008KT 03/M02 A3009 RMK A01 T00301016  RH  072%=      5-min Rain = 0
KHES 161010Z 21008KT 03/M02 A3009 RMK A01 T00301016  RH  072%=      5-min Rain = 0
KHES 161015Z 21008KT 03/M02 A3009 RMK A01 T00291016  RH  073%=      5-min Rain = 0
KHES 161020Z 21009KT 03/M02 A3008 RMK A01 T00301015  RH  073%=      5-min Rain = 0
KHES 161025Z 21009KT 03/M02 A3008 RMK A01 T00311015  RH  072%=      5-min Rain = 0
KHES 161030Z 21009KT 03/M02 A3008 RMK A01 T00321015  RH  072%=      5-min Rain = 0
KHES 161035Z 21008KT 03/M02 A3008 RMK A01 T00311015  RH  072%=      5-min Rain = 0
KHES 161040Z 21008KT 03/M01 A3008 RMK A01 T00301014  RH  073%=      5-min Rain = 0
KHES 161045Z 21007KT 03/M01 A3008 RMK A01 T00301014  RH  073%=      5-min Rain = 0
KHES 161050Z 21007KT 03/M01 A3008 RMK A01 T00301014  RH  073%=      5-min Rain = 0
KHES 161055Z 21007KT 03/M01 A3008 RMK A01 T00311013  RH  073%=      5-min Rain = 0
KHES 161100Z 21008KT 03/M01 A3008 RMK A01 T00311013  RH  073%=      5-min Rain = 0
KHES 161105Z 21008KT 03/M01 A3008 RMK A01 T00321012  RH  073%=      5-min Rain = 0
KHES 161110Z 20008KT 03/M01 A3008 RMK A01 T00321012  RH  073%=      5-min Rain = 0
KHES 161115Z 20009KT 03/M01 A3008 RMK A01 T00331012  RH  073%=      5-min Rain = 0
KHES 161120Z 21009KT 03/M01 A3008 RMK A01 T00341012  RH  073%=      5-min Rain = 0
KHES 161125Z 21009KT 03/M01 A3008 RMK A01 T00331012  RH  073%=      5-min Rain = 0
KHES 161130Z 21009KT 03/M01 A3008 RMK A01 T00321012  RH  074%=      5-min Rain = 0
KHES 161135Z 20009KT 03/M01 A3007 RMK A01 T00311012  RH  074%=      5-min Rain = 0
KHES 161140Z 20008KT 03/M01 A3008 RMK A01 T00301012  RH  074%=      5-min Rain = 0
KHES 161145Z 20008KT 03/M01 A3008 RMK A01 T00281013  RH  075%=      5-min Rain = 0
KHES 161150Z 20009KT 03/M01 A3007 RMK A01 T00291012  RH  075%=      5-min Rain = 0
KHES 161155Z 21008KT 03/M01 A3007 RMK A01 T00291012  RH  075%=      5-min Rain = 0
KHES 161200Z 20009KT 03/M01 A3007 RMK A01 T00281012  RH  075%=      5-min Rain = 0
KHES 161205Z 20009KT 03/M01 A3007 RMK A01 T00281012  RH  076%=      5-min Rain = 0
KHES 161210Z 20009KT 03/M01 A3007 RMK A01 T00281012  RH  076%=      5-min Rain = 0
KHES 161215Z 20008KT 03/M01 A3007 RMK A01 T00261013  RH  076%=      5-min Rain = 0
KHES 161220Z 20008KT 02/M01 A3007 RMK A01 T00241013  RH  077%=      5-min Rain = 0
KHES 161225Z 20008KT 02/M01 A3007 RMK A01 T00231014  RH  077%=      5-min Rain = 0
KHES 161230Z 21008KT 02/M01 A3007 RMK A01 T00231013  RH  077%=      5-min Rain = 0
KHES 161235Z 22007KT 02/M01 A3008 RMK A01 T00231014  RH  077%=      5-min Rain = 0
KHES 161240Z 22006KT 02/M02 A3007 RMK A01 T00211015  RH  078%=      5-min Rain = 0
KHES 161245Z 21007KT 02/M02 A3007 RMK A01 T00171016  RH  079%=      5-min Rain = 0
KHES 161250Z 21007KT 02/M02 A3008 RMK A01 T00181015  RH  080%=      5-min Rain = 0
KHES 161255Z 20007KT 02/M02 A3008 RMK A01 T00181015  RH  080%=      5-min Rain = 0
KHES 161300Z 20007KT 02/M02 A3008 RMK A01 T00171015  RH  080%=      5-min Rain = 0
KHES 161305Z 20007KT 02/M02 A3008 RMK A01 T00161015  RH  081%=      5-min Rain = 0
KHES 161310Z 20008KT 02/M02 A3008 RMK A01 T00171015  RH  080%=      5-min Rain = 0
KHES 161315Z 20008KT 02/M01 A3008 RMK A01 T00191014  RH  080%=      5-min Rain = 0
KHES 161320Z 19009KT 02/M01 A3008 RMK A01 T00201013  RH  079%=      5-min Rain = 0
KHES 161325Z 19008KT 02/M01 A3008 RMK A01 T00221013  RH  079%=      5-min Rain = 0
KHES 161330Z 19007KT 02/M01 A3008 RMK A01 T00201014  RH  079%=      5-min Rain = 0
KHES 161335Z 19007KT 02/M01 A3008 RMK A01 T00191014  RH  080%=      5-min Rain = 0
KHES 161340Z 19006KT 02/M02 A3008 RMK A01 T00171015  RH  080%=      5-min Rain = 0
KHES 161345Z 18006KT 02/M02 A3008 RMK A01 T00151015  RH  081%=      5-min Rain = 0
KHES 161350Z 18006KT 01/M02 A3008 RMK A01 T00141015  RH  082%=      5-min Rain = 0
KHES 161355Z 18006KT 01/M02 A3008 RMK A01 T00141015  RH  082%=      5-min Rain = 0
KHES 161400Z 19007KT 02/M01 A3008 RMK A01 T00151014  RH  081%=      5-min Rain = 0
KHES 161405Z 18006KT 02/M01 A3007 RMK A01 T00161014  RH  081%=      5-min Rain = 0
KHES 161410Z 18006KT 02/M01 A3007 RMK A01 T00161014  RH  081%=      5-min Rain = 0
KHES 161415Z 18006KT 02/M01 A3007 RMK A01 T00161013  RH  082%=      5-min Rain = 0
KHES 161420Z 19005KT 02/M01 A3007 RMK A01 T00171012  RH  082%=      5-min Rain = 0
KHES 161425Z 20007KT 02/M01 A3007 RMK A01 T00211010  RH  081%=      5-min Rain = 0
KHES 161430Z 20008KT 03/M01 A3007 RMK A01 T00271008  RH  079%=      5-min Rain = 0
KHES 161435Z 21007KT 03/M01 A3007 RMK A01 T00341005  RH  076%=      5-min Rain = 0
KHES 161440Z 21008KT 04/M00 A3007 RMK A01 T00391004  RH  074%=      5-min Rain = 0
KHES 161445Z 20009KT 04/M00 A3007 RMK A01 T00441002  RH  073%=      5-min Rain = 0
KHES 161450Z 20010KT 05/M00 A3007 RMK A01 T00471002  RH  071%=      5-min Rain = 0
KHES 161455Z 21010KT 05/M00 A3007 RMK A01 T00511001  RH  070%=      5-min Rain = 0
KHES 161500Z 21010KT 05/00 A3007 RMK A01 T005400-0  RH  068%=      5-min Rain = 0
KHES 161505Z 21011G16KT 06/00 A3006 RMK A01 T005600-0  RH  068%=      5-min Rain = 0
KHES 161510Z 21011KT 06/00 A3006 RMK A01 T005800-0  RH  067%=      5-min Rain = 0
KHES 161515Z 21011KT 06/00 A3006 RMK A01 T00590000  RH  067%=      5-min Rain = 0
KHES 161520Z 21012KT 06/00 A3006 RMK A01 T00630003  RH  066%=      5-min Rain = 0
KHES 161525Z 20011KT 07/00 A3006 RMK A01 T00670004  RH  065%=      5-min Rain = 0
KHES 161530Z 21010G15KT 07/01 A3006 RMK A01 T00730006  RH  063%=      5-min Rain = 0
KHES 161535Z 21011KT 08/01 A3007 RMK A01 T00760007  RH  062%=      5-min Rain = 0
KHES 161540Z 21012KT 08/01 A3007 RMK A01 T00790006  RH  061%=      5-min Rain = 0
KHES 161545Z 21012KT 08/01 A3006 RMK A01 T00840008  RH  060%=      5-min Rain = 0
KHES 161550Z 22011KT 09/01 A3006 RMK A01 T00870008  RH  058%=      5-min Rain = 0
KHES 161555Z 21011KT 09/01 A3006 RMK A01 T00940011  RH  057%=      5-min Rain = 0
KHES 161600Z 21012KT 10/01 A3006 RMK A01 T01000011  RH  054%=      5-min Rain = 0
KHES 161605Z 21012G18KT 11/01 A3006 RMK A01 T01070009  RH  051%=      5-min Rain = 0
KHES 161610Z 21011KT 11/01 A3005 RMK A01 T01120009  RH  050%=      5-min Rain = 0
KHES 161615Z 22012KT 12/01 A3006 RMK A01 T01180009  RH  048%=      5-min Rain = 0
KHES 161620Z 22011KT 12/01 A3006 RMK A01 T01190008  RH  047%=      5-min Rain = 0
KHES 161625Z 22011KT 12/01 A3006 RMK A01 T01230010  RH  046%=      5-min Rain = 0
KHES 161630Z 22011G16KT 12/01 A3006 RMK A01 T01240008  RH  045%=      5-min Rain = 0
KHES 161635Z 22012KT 13/01 A3006 RMK A01 T01280008  RH  045%=      5-min Rain = 0
KHES 161640Z 22010KT 13/01 A3005 RMK A01 T01330010  RH  044%=      5-min Rain = 0
KHES 161645Z 22010KT 14/01 A3005 RMK A01 T01380011  RH  043%=      5-min Rain = 0
KHES 161650Z 23012KT 14/00 A3005 RMK A01 T01420002  RH  039%=      5-min Rain = 0
KHES 161655Z 23012KT 14/00 A3005 RMK A01 T01430002  RH  039%=      5-min Rain = 0
KHES 161700Z 22013KT 15/00 A3004 RMK A01 T01470002  RH  038%=      5-min Rain = 0
KHES 161705Z 22012KT 15/00 A3004 RMK A01 T01490003  RH  037%=      5-min Rain = 0
KHES 161710Z 21012KT 15/00 A3004 RMK A01 T01500002  RH  037%=      5-min Rain = 0
KHES 161715Z 22011KT 15/00 A3004 RMK A01 T01530004  RH  037%=      5-min Rain = 0
KHES 161720Z 21012KT 15/01 A3004 RMK A01 T01540005  RH  037%=      5-min Rain = 0
KHES 161725Z 21011KT 15/00 A3003 RMK A01 T01540004  RH  036%=      5-min Rain = 0
KHES 161730Z 21011KT 16/01 A3003 RMK A01 T01580005  RH  036%=      5-min Rain = 0
KHES 161735Z 22012KT 16/00 A3003 RMK A01 T01620001  RH  034%=      5-min Rain = 0
KHES 161740Z 21011G16KT 17/01 A3003 RMK A01 T01680005  RH  034%=      5-min Rain = 0
KHES 161745Z 22013G18KT 17/00 A3002 RMK A01 T01670001  RH  033%=      5-min Rain = 0
KHES 161750Z 21013KT 17/01 A3002 RMK A01 T01680005  RH  034%=      5-min Rain = 0
KHES 161755Z 21012KT 17/00 A3002 RMK A01 T01720004  RH  032%=      5-min Rain = 0
KHES 161800Z 21014KT 17/00 A3002 RMK A01 T01730002  RH  032%=      5-min Rain = 0
KHES 161805Z 21012KT 18/00 A3001 RMK A01 T01780002  RH  031%=      5-min Rain = 0
KHES 161810Z 23013KT 18/00 A3001 RMK A01 T01830003  RH  030%=      5-min Rain = 0
KHES 161815Z 22014G19KT 18/M00 A30 RMK A01 T01841001  RH  029%=      5-min Rain = 0
KHES 161820Z 23013KT 19/00 A30 RMK A01 T01860001  RH  029%=      5-min Rain = 0
KHES 161825Z 21011KT 19/00 A2999 RMK A01 T01900004  RH  029%=      5-min Rain = 0
KHES 161830Z 22012KT 20/00 A2999 RMK A01 T01950003  RH  028%=      5-min Rain = 0
KHES 161835Z 21012KT 20/00 A2999 RMK A01 T01960004  RH  028%=      5-min Rain = 0
KHES 161840Z 20011KT 20/01 A2999 RMK A01 T01970012  RH  029%=      5-min Rain = 0
KHES 161845Z 20012KT 19/01 A2998 RMK A01 T01930014  RH  031%=      5-min Rain = 0
KHES 161850Z 21011KT 19/01 A2998 RMK A01 T01910011  RH  030%=      5-min Rain = 0
KHES 161855Z 20012KT 19/01 A2998 RMK A01 T01890009  RH  030%=      5-min Rain = 0
KHES 161900Z 21010KT 19/01 A2998 RMK A01 T01940007  RH  029%=      5-min Rain = 0
KHES 161905Z 21011KT 20/01 A2997 RMK A01 T01970005  RH  028%=      5-min Rain = 0
KHES 161910Z 22012G17KT 20/00 A2997 RMK A01 T02000003  RH  027%=      5-min Rain = 0
KHES 161915Z 21012G17KT 20/01 A2996 RMK A01 T02010006  RH  027%=      5-min Rain = 0
KHES 161920Z 19011KT 20/01 A2996 RMK A01 T01990008  RH  028%=      5-min Rain = 0
KHES 161925Z 20011KT 20/01 A2995 RMK A01 T01960008  RH  029%=      5-min Rain = 0
KHES 161930Z 19010KT 19/01 A2995 RMK A01 T01940008  RH  029%=      5-min Rain = 0
KHES 161935Z 20012KT 19/01 A2995 RMK A01 T01930007  RH  029%=      5-min Rain = 0
KHES 161940Z 20011KT 19/01 A2995 RMK A01 T01940008  RH  029%=      5-min Rain = 0
KHES 161945Z 20011KT 20/01 A2995 RMK A01 T01960009  RH  029%=      5-min Rain = 0
KHES 161950Z 20010KT 20/01 A2994 RMK A01 T01970007  RH  028%=      5-min Rain = 0
KHES 161955Z 20010KT 20/01 A2994 RMK A01 T02010007  RH  028%=      5-min Rain = 0
KHES 162000Z 20011KT 20/01 A2994 RMK A01 T02030006  RH  027%=      5-min Rain = 0
KHES 162005Z 20011KT 21/01 A2994 RMK A01 T02050006  RH  027%=      5-min Rain = 0
KHES 162010Z 20011KT 21/01 A2994 RMK A01 T02080005  RH  026%=      5-min Rain = 0
KHES 162015Z 20010KT 20/00 A2994 RMK A01 T02040004  RH  027%=      5-min Rain = 0
KHES 162020Z 20011G16KT 20/00 A2994 RMK A01 T02030004  RH  027%=      5-min Rain = 0
KHES 162025Z 20012KT 20/01 A2994 RMK A01 T02030006  RH  027%=      5-min Rain = 0
KHES 162030Z 19013KT 20/00 A2994 RMK A01 T01960003  RH  028%=      5-min Rain = 0
KHES 162035Z 19011KT 19/00 A2993 RMK A01 T01940004  RH  028%=      5-min Rain = 0
KHES 162040Z 19013G18KT 19/00 A2993 RMK A01 T01930001  RH  028%=      5-min Rain = 0
KHES 162045Z 19013KT 19/00 A2993 RMK A01 T01910000  RH  028%=      5-min Rain = 0
KHES 162050Z 20012KT 19/M00 A2993 RMK A01 T01901001  RH  028%=      5-min Rain = 0
KHES 162055Z 20011KT 19/00 A2993 RMK A01 T01910001  RH  028%=      5-min Rain = 0
KHES 162100Z 20012KT 19/00 A2993 RMK A01 T01900001  RH  028%=      5-min Rain = 0
KHES 162105Z 20011KT 19/00 A2993 RMK A01 T01910001  RH  028%=      5-min Rain = 0
KHES 162110Z 20011G16KT 19/00 A2993 RMK A01 T01910001  RH  028%=      5-min Rain = 0
KHES 162115Z 20010KT 19/00 A2993 RMK A01 T01920001  RH  028%=      5-min Rain = 0
KHES 162120Z 20010KT 19/00 A2993 RMK A01 T01930002  RH  028%=      5-min Rain = 0
KHES 162125Z 21009KT 19/00 A2993 RMK A01 T01940003  RH  028%=      5-min Rain = 0
KHES 162130Z 21012G18KT 20/M00 A2993 RMK A01 T01961001  RH  027%=      5-min Rain = 0
KHES 162135Z 21011KT 20/M00 A2993 RMK A01 T01971002  RH  027%=      5-min Rain = 0
KHES 162140Z 20013G18KT 20/M00 A2992 RMK A01 T01991004  RH  026%=      5-min Rain = 0
KHES 162145Z 20012KT 20/M01 A2992 RMK A01 T02001005  RH  025%=      5-min Rain = 0
KHES 162150Z 21012KT 20/M01 A2993 RMK A01 T02011006  RH  025%=      5-min Rain = 0
KHES 162155Z 21010KT 20/M01 A2993 RMK A01 T02011007  RH  025%=      5-min Rain = 0
KHES 162200Z 21010KT 20/M01 A2993 RMK A01 T02021009  RH  024%=      5-min Rain = 0
KHES 162205Z 21010KT 20/M01 A2993 RMK A01 T02001010  RH  025%=      5-min Rain = 0
KHES 162210Z 21010KT 20/M01 A2993 RMK A01 T01991009  RH  025%=      5-min Rain = 0
KHES 162215Z 20010KT 20/M01 A2992 RMK A01 T01991009  RH  025%=      5-min Rain = 0
KHES 162220Z 20010KT 20/M01 A2992 RMK A01 T01991008  RH  025%=      5-min Rain = 0
KHES 162225Z 21011KT 20/M01 A2993 RMK A01 T01991010  RH  025%=      5-min Rain = 0
KHES 162230Z 21009KT 20/M01 A2993 RMK A01 T01991010  RH  025%=      5-min Rain = 0
KHES 162235Z 22009KT 20/M01 A2993 RMK A01 T01991014  RH  024%=      5-min Rain = 0
KHES 162240Z 22010KT 20/M02 A2993 RMK A01 T02011017  RH  023%=      5-min Rain = 0
KHES 162245Z 23009KT 21/M02 A2992 RMK A01 T02061016  RH  023%=      5-min Rain = 0
KHES 162250Z 23009KT 20/M02 A2992 RMK A01 T02041019  RH  022%=      5-min Rain = 0
KHES 162255Z 23010KT 20/M02 A2992 RMK A01 T02001022  RH  022%=      5-min Rain = 0
KHES 162300Z 23007KT 20/M02 A2993 RMK A01 T01961019  RH  023%=      5-min Rain = 0
KHES 162305Z 22006KT 19/M02 A2993 RMK A01 T01931016  RH  025%=      5-min Rain = 0
KHES 162310Z 21006KT 19/M01 A2993 RMK A01 T01911013  RH  025%=      5-min Rain = 0
KHES 162315Z 21007KT 19/M01 A2993 RMK A01 T01891014  RH  026%=      5-min Rain = 0
KHES 162320Z 21007KT 19/M01 A2993 RMK A01 T01881014  RH  026%=      5-min Rain = 0
KHES 162325Z 21007KT 19/M01 A2993 RMK A01 T01851014  RH  026%=      5-min Rain = 0
KHES 162330Z 20007KT 18/M01 A2993 RMK A01 T01811013  RH  027%=      5-min Rain = 0
KHES 162335Z 20007KT 18/M01 A2993 RMK A01 T01771013  RH  028%=      5-min Rain = 0
KHES 162340Z 20007KT 18/M02 A2993 RMK A01 T01771015  RH  027%=      5-min Rain = 0
KHES 162345Z 20006KT 18/M02 A2993 RMK A01 T01751016  RH  027%=      5-min Rain = 0
KHES 162350Z 20007KT 17/M02 A2993 RMK A01 T01721017  RH  028%=      5-min Rain = 0
KHES 162355Z 20007KT 17/M02 A2993 RMK A01 T01691018  RH  028%=      5-min Rain = 0
KHES 170000Z 18007KT 17/M02 A2994 RMK A01 T01661016  RH  029%=      5-min Rain = 0
KHES 170005Z 18008KT 16/M01 A2994 RMK A01 T01581010  RH  032%=      5-min Rain = 0
KHES 170010Z 17007KT 15/M01 A2994 RMK A01 T01521007  RH  034%=      5-min Rain = 0
KHES 170015Z 18006KT 15/M00 A2994 RMK A01 T01451004  RH  036%=      5-min Rain = 0
KHES 170020Z 17006KT 14/M00 A2994 RMK A01 T01431002  RH  037%=      5-min Rain = 0
KHES 170025Z 16006KT 14/M00 A2994 RMK A01 T01421001  RH  038%=      5-min Rain = 0
KHES 170030Z 17006KT 14/00 A2994 RMK A01 T01400001  RH  039%=      5-min Rain = 0
KHES 170035Z 16007KT 14/00 A2994 RMK A01 T01390003  RH  040%=      5-min Rain = 0
KHES 170040Z 16007KT 14/00 A2994 RMK A01 T01380004  RH  040%=      5-min Rain = 0
KHES 170045Z 17007KT 14/01 A2994 RMK A01 T01360005  RH  041%=      5-min Rain = 0
KHES 170050Z 17006KT 14/01 A2995 RMK A01 T01350006  RH  042%=      5-min Rain = 0
KHES 170055Z 17006KT 13/01 A2995 RMK A01 T01320006  RH  043%=      5-min Rain = 0
KHES 170100Z 16005KT 13/01 A2995 RMK A01 T01280006  RH  044%=      5-min Rain = 0
KHES 170105Z 16006KT 13/01 A2995 RMK A01 T01260007  RH  045%=      5-min Rain = 0
KHES 170110Z 17006KT 12/01 A2995 RMK A01 T01240008  RH  045%=      5-min Rain = 0
KHES 170115Z 17007KT 12/01 A2995 RMK A01 T01230008  RH  046%=      5-min Rain = 0
KHES 170120Z 17007KT 12/01 A2995 RMK A01 T01200008  RH  047%=      5-min Rain = 0
KHES 170125Z 17006KT 12/01 A2995 RMK A01 T01170007  RH  047%=      5-min Rain = 0
KHES 170130Z 18005KT 12/01 A2995 RMK A01 T01150006  RH  048%=      5-min Rain = 0
KHES 170135Z 17006KT 11/01 A2995 RMK A01 T01120005  RH  048%=      5-min Rain = 0
KHES 170140Z 16006KT 11/00 A2995 RMK A01 T01100004  RH  049%=      5-min Rain = 0
KHES 170145Z 16008KT 11/01 A2995 RMK A01 T01120006  RH  048%=      5-min Rain = 0
KHES 170150Z 17007KT 11/01 A2995 RMK A01 T01120006  RH  049%=      5-min Rain = 0
KHES 170155Z 17007KT 11/01 A2995 RMK A01 T01110007  RH  049%=      5-min Rain = 0
KHES 170200Z 17007KT 11/01 A2995 RMK A01 T01100007  RH  050%=      5-min Rain = 0
KHES 170205Z 17007KT 11/01 A2995 RMK A01 T01060007  RH  051%=      5-min Rain = 0
KHES 170210Z 17008KT 10/01 A2995 RMK A01 T01040008  RH  052%=      5-min Rain = 0
KHES 170215Z 17008KT 10/01 A2995 RMK A01 T01030008  RH  052%=      5-min Rain = 0
KHES 170220Z 18008KT 10/01 A2994 RMK A01 T01010008  RH  053%=      5-min Rain = 0
KHES 170225Z 18008KT 10/01 A2994 RMK A01 T00970008  RH  054%=      5-min Rain = 0
KHES 170230Z 18008KT 10/01 A2994 RMK A01 T00980007  RH  054%=      5-min Rain = 0
KHES 170235Z 18007KT 10/01 A2994 RMK A01 T00990008  RH  054%=      5-min Rain = 0
KHES 170240Z 19006KT 10/01 A2995 RMK A01 T00980008  RH  054%=      5-min Rain = 0
KHES 170245Z 19006KT 10/01 A2995 RMK A01 T00980008  RH  054%=      5-min Rain = 0
KHES 170250Z 18008KT 10/01 A2995 RMK A01 T01020008  RH  053%=      5-min Rain = 0
KHES 170255Z 18007KT 10/01 A2995 RMK A01 T01040008  RH  052%=      5-min Rain = 0
KHES 170300Z 19005KT 10/01 A2996 RMK A01 T01020008  RH  053%=      5-min Rain = 0
KHES 170305Z 20004KT 10/01 A2997 RMK A01 T01000007  RH  053%=      5-min Rain = 0
KHES 170310Z 25004KT 10/01 A2997 RMK A01 T00970005  RH  053%=      5-min Rain = 0
KHES 170315Z 27003KT 09/01 A2997 RMK A01 T00860005  RH  057%=      5-min Rain = 0
KHES 170320Z 25002KT 08/01 A2997 RMK A01 T00830005  RH  059%=      5-min Rain = 0
KHES 170325Z 26001KT 08/00 A2997 RMK A01 T00810004  RH  059%=      5-min Rain = 0
KHES 170330Z 22002KT 08/00 A2997 RMK A01 T00800004  RH  060%=      5-min Rain = 0
KHES 170335Z 20003KT 08/00 A2997 RMK A01 T00800004  RH  059%=      5-min Rain = 0
KHES 170340Z 21006KT 08/00 A2997 RMK A01 T00800003  RH  059%=      5-min Rain = 0
KHES 170345Z 20008KT 09/01 A2996 RMK A01 T00900007  RH  057%=      5-min Rain = 0
KHES 170350Z 20007KT 09/01 A2996 RMK A01 T00940006  RH  055%=      5-min Rain = 0
KHES 170355Z 20007KT 09/01 A2996 RMK A01 T00930007  RH  056%=      5-min Rain = 0
KHES 170400Z 20006KT 09/01 A2996 RMK A01 T00920006  RH  055%=      5-min Rain = 0
KHES 170405Z 20005KT 09/01 A2996 RMK A01 T00900005  RH  056%=      5-min Rain = 0
KHES 170410Z 20005KT 09/01 A2996 RMK A01 T00870005  RH  057%=      5-min Rain = 0
KHES 170415Z 20006KT 09/01 A2996 RMK A01 T00850005  RH  058%=      5-min Rain = 0
KHES 170420Z 20007KT 09/01 A2997 RMK A01 T00850005  RH  058%=      5-min Rain = 0
KHES 170425Z 20006KT 08/01 A2997 RMK A01 T00840005  RH  058%=      5-min Rain = 0
KHES 170430Z 21005KT 08/00 A2997 RMK A01 T00830004  RH  058%=      5-min Rain = 0
KHES 170435Z 20004KT 08/00 A2997 RMK A01 T00810004  RH  059%=      5-min Rain = 0
KHES 170440Z 21004KT 08/00 A2997 RMK A01 T00790004  RH  060%=      5-min Rain = 0
KHES 170445Z 22004KT 08/00 A2997 RMK A01 T00780004  RH  060%=      5-min Rain = 0
KHES 170450Z 31004KT 07/00 A2998 RMK A01 T00720001  RH  061%=      5-min Rain = 0
KHES 170455Z 29003KT 07/00 A2998 RMK A01 T006500-0  RH  064%=      5-min Rain = 0
KHES 170500Z 29004KT 06/00 A2998 RMK A01 T006200-0  RH  065%=      5-min Rain = 0
KHES 170505Z 32007KT 06/M00 A2998 RMK A01 T00611001  RH  065%=      5-min Rain = 0
KHES 170510Z 33006KT 06/M00 A2999 RMK A01 T00611001  RH  065%=      5-min Rain = 0
KHES 170515Z 33005KT 06/M00 A2999 RMK A01 T00601001  RH  066%=      5-min Rain = 0
KHES 170520Z 33006KT 06/00 A2998 RMK A01 T005800-0  RH  067%=      5-min Rain = 0
KHES 170525Z 34009KT 06/00 A2999 RMK A01 T00560001  RH  068%=      5-min Rain = 0
KHES 170530Z 34008KT 06/M00 A2999 RMK A01 T00591001  RH  066%=      5-min Rain = 0
KHES 170535Z 35007KT 06/M00 A2999 RMK A01 T00611003  RH  064%=      5-min Rain = 0
KHES 170540Z 35008KT 07/M01 A2999 RMK A01 T00651005  RH  062%=      5-min Rain = 0
KHES 170545Z 36008KT 07/M00 A2998 RMK A01 T00671001  RH  062%=      5-min Rain = 0
KHES 170550Z 01008KT 07/00 A2998 RMK A01 T00660002  RH  065%=      5-min Rain = 0
KHES 170555Z 01008KT 07/00 A2999 RMK A01 T00650003  RH  066%=      5-min Rain = 0

Page generated in 0.0151 seconds.